Decoded Metar for KARG (WALNUT RIDGE in AR, USA) (IATA:ARG) | Meteo·Mobile Aviation Weather
aviador You're here:

KARG Decoded Metar

WALNUT RIDGE in AR, USA
Report Time2019-03-23 20:56:00
UTC Time2019-03-23 21:30:18
Flight Rules vfr VFR
Wind190° at 09 kt
W.Decomp.*RWY 18: 8.9 kt HW 1.4 kt RCW
RWY 22: 7.7 kt HW 4.6 kt LCW
RWY 13: 4.6 kt HW 7.7 kt RCW
W.Rank190° ranks 1
Current wind is below 190° avg. (9.8)
Visibility9999 m
Phenomena:N/A
Clouds:Few 110 Hf
Expected CloudBase > 6,000 ft AGL from Temp-Dew spread
CeilingNone
Temp19°C (ISA +5)
Dew Point04°C (37% RH)
AAT14.4°C
QNH1023 hPa
Density Alt581 ft
Elevation272 ft
Report Wrong Elevation
Raw Report
KARG 232056Z AUTO 19009KT 10SM FEW110 19/04 A3020 RMK AO2 SLP229
T01890039 56005=

Extra information for KARG:More info

Metar Taf Metar & Taf Last 4 Metars F.Rules Stats Wind Profile Meteogram Temp Stats Airport Information Weather charts Add Link Nearby VenuesMetar ALERT Operation Metar Decoded Social comments

AIRNAV info for KARG